sensor_id;sensor_type;location;lat;lon;timestamp;P1;durP1;ratioP1;P2;durP2;ratioP2
19251;SDS011;9760;50.944;5.304;2023-04-25T00:01:04;20.30;;;4.40;;
19251;SDS011;9760;50.944;5.304;2023-04-25T00:03:31;21.80;;;4.43;;
19251;SDS011;9760;50.944;5.304;2023-04-25T00:05:58;20.43;;;4.20;;
19251;SDS011;9760;50.944;5.304;2023-04-25T00:08:27;17.17;;;4.43;;
19251;SDS011;9760;50.944;5.304;2023-04-25T00:10:54;25.23;;;4.57;;
19251;SDS011;9760;50.944;5.304;2023-04-25T00:13:19;31.80;;;5.70;;
19251;SDS011;9760;50.944;5.304;2023-04-25T00:15:46;14.60;;;4.87;;
19251;SDS011;9760;50.944;5.304;2023-04-25T00:18:13;20.83;;;4.53;;
19251;SDS011;9760;50.944;5.304;2023-04-25T00:20:39;18.63;;;4.03;;
19251;SDS011;9760;50.944;5.304;2023-04-25T00:23:05;22.00;;;4.17;;
19251;SDS011;9760;50.944;5.304;2023-04-25T00:25:31;18.67;;;4.50;;
19251;SDS011;9760;50.944;5.304;2023-04-25T00:28:05;20.07;;;4.27;;
19251;SDS011;9760;50.944;5.304;2023-04-25T00:30:34;27.40;;;4.97;;
19251;SDS011;9760;50.944;5.304;2023-04-25T00:33:00;19.83;;;4.33;;
19251;SDS011;9760;50.944;5.304;2023-04-25T00:35:25;23.63;;;4.27;;
19251;SDS011;9760;50.944;5.304;2023-04-25T00:37:51;14.37;;;4.10;;
19251;SDS011;9760;50.944;5.304;2023-04-25T00:40:17;22.27;;;4.23;;
19251;SDS011;9760;50.944;5.304;2023-04-25T00:42:42;25.87;;;4.27;;
19251;SDS011;9760;50.944;5.304;2023-04-25T00:45:10;16.63;;;4.20;;
19251;SDS011;9760;50.944;5.304;2023-04-25T00:47:39;25.50;;;5.10;;
19251;SDS011;9760;50.944;5.304;2023-04-25T00:50:05;20.27;;;5.23;;
19251;SDS011;9760;50.944;5.304;2023-04-25T00:52:32;19.20;;;4.43;;
19251;SDS011;9760;50.944;5.304;2023-04-25T00:54:57;21.43;;;4.93;;
19251;SDS011;9760;50.944;5.304;2023-04-25T00:57:24;17.53;;;3.97;;
19251;SDS011;9760;50.944;5.304;2023-04-25T00:59:50;17.70;;;4.43;;
19251;SDS011;9760;50.944;5.304;2023-04-25T01:02:17;18.30;;;4.23;;
19251;SDS011;9760;50.944;5.304;2023-04-25T01:04:43;20.73;;;4.20;;
19251;SDS011;9760;50.944;5.304;2023-04-25T01:07:10;23.53;;;4.00;;
19251;SDS011;9760;50.944;5.304;2023-04-25T01:09:35;24.60;;;4.30;;
19251;SDS011;9760;50.944;5.304;2023-04-25T01:12:02;24.07;;;4.63;;
19251;SDS011;9760;50.944;5.304;2023-04-25T01:14:28;22.27;;;4.60;;
19251;SDS011;9760;50.944;5.304;2023-04-25T01:16:55;18.93;;;4.70;;
19251;SDS011;9760;50.944;5.304;2023-04-25T01:19:20;24.70;;;4.57;;
19251;SDS011;9760;50.944;5.304;2023-04-25T01:21:46;17.20;;;4.20;;
19251;SDS011;9760;50.944;5.304;2023-04-25T01:24:12;21.70;;;4.43;;
19251;SDS011;9760;50.944;5.304;2023-04-25T01:26:38;38.93;;;4.87;;
19251;SDS011;9760;50.944;5.304;2023-04-25T01:29:09;24.63;;;4.60;;
19251;SDS011;9760;50.944;5.304;2023-04-25T01:31:35;20.77;;;4.17;;
19251;SDS011;9760;50.944;5.304;2023-04-25T01:34:02;18.23;;;4.33;;
19251;SDS011;9760;50.944;5.304;2023-04-25T01:36:27;22.97;;;3.70;;
19251;SDS011;9760;50.944;5.304;2023-04-25T01:38:53;20.93;;;4.50;;
19251;SDS011;9760;50.944;5.304;2023-04-25T01:41:20;15.53;;;4.60;;
19251;SDS011;9760;50.944;5.304;2023-04-25T01:43:48;18.77;;;4.20;;
19251;SDS011;9760;50.944;5.304;2023-04-25T01:46:13;26.70;;;4.77;;
19251;SDS011;9760;50.944;5.304;2023-04-25T01:48:40;22.13;;;4.53;;
19251;SDS011;9760;50.944;5.304;2023-04-25T01:51:05;18.77;;;4.60;;
19251;SDS011;9760;50.944;5.304;2023-04-25T01:53:31;19.07;;;4.60;;
19251;SDS011;9760;50.944;5.304;2023-04-25T01:55:57;23.03;;;5.07;;
19251;SDS011;9760;50.944;5.304;2023-04-25T01:58:23;21.40;;;4.67;;
19251;SDS011;9760;50.944;5.304;2023-04-25T02:00:48;36.50;;;5.87;;
19251;SDS011;9760;50.944;5.304;2023-04-25T02:03:14;21.10;;;4.33;;
19251;SDS011;9760;50.944;5.304;2023-04-25T02:05:40;22.43;;;4.80;;
19251;SDS011;9760;50.944;5.304;2023-04-25T02:08:06;23.73;;;4.43;;
19251;SDS011;9760;50.944;5.304;2023-04-25T02:10:33;21.90;;;5.80;;
19251;SDS011;9760;50.944;5.304;2023-04-25T02:12:59;25.73;;;5.07;;
19251;SDS011;9760;50.944;5.304;2023-04-25T02:15:25;20.30;;;4.83;;
19251;SDS011;9760;50.944;5.304;2023-04-25T02:17:51;23.30;;;5.13;;
19251;SDS011;9760;50.944;5.304;2023-04-25T02:20:22;24.90;;;4.80;;
19251;SDS011;9760;50.944;5.304;2023-04-25T02:22:49;23.60;;;4.93;;
19251;SDS011;9760;50.944;5.304;2023-04-25T02:25:15;18.77;;;5.17;;
19251;SDS011;9760;50.944;5.304;2023-04-25T02:27:41;21.57;;;4.47;;
19251;SDS011;9760;50.944;5.304;2023-04-25T02:30:07;25.70;;;5.23;;
19251;SDS011;9760;50.944;5.304;2023-04-25T02:32:33;20.40;;;4.40;;
19251;SDS011;9760;50.944;5.304;2023-04-25T02:34:59;16.40;;;4.80;;
19251;SDS011;9760;50.944;5.304;2023-04-25T02:37:29;17.43;;;5.40;;
19251;SDS011;9760;50.944;5.304;2023-04-25T02:39:58;18.90;;;4.77;;
19251;SDS011;9760;50.944;5.304;2023-04-25T02:42:24;20.47;;;5.00;;
19251;SDS011;9760;50.944;5.304;2023-04-25T02:44:50;24.13;;;4.77;;
19251;SDS011;9760;50.944;5.304;2023-04-25T02:47:16;28.63;;;5.17;;
19251;SDS011;9760;50.944;5.304;2023-04-25T02:49:41;18.73;;;5.07;;
19251;SDS011;9760;50.944;5.304;2023-04-25T02:52:07;21.33;;;5.23;;
19251;SDS011;9760;50.944;5.304;2023-04-25T02:54:33;23.17;;;5.03;;
19251;SDS011;9760;50.944;5.304;2023-04-25T02:56:59;16.40;;;5.33;;
19251;SDS011;9760;50.944;5.304;2023-04-25T02:59:25;22.37;;;5.60;;
19251;SDS011;9760;50.944;5.304;2023-04-25T03:01:51;28.90;;;5.60;;
19251;SDS011;9760;50.944;5.304;2023-04-25T03:04:17;19.80;;;5.17;;
19251;SDS011;9760;50.944;5.304;2023-04-25T03:06:44;25.00;;;4.97;;
19251;SDS011;9760;50.944;5.304;2023-04-25T03:09:09;23.57;;;5.87;;
19251;SDS011;9760;50.944;5.304;2023-04-25T03:11:36;24.07;;;5.93;;
19251;SDS011;9760;50.944;5.304;2023-04-25T03:14:03;17.90;;;4.87;;
19251;SDS011;9760;50.944;5.304;2023-04-25T03:16:29;33.97;;;6.30;;
19251;SDS011;9760;50.944;5.304;2023-04-25T03:18:55;19.50;;;5.17;;
19251;SDS011;9760;50.944;5.304;2023-04-25T03:21:21;21.73;;;6.40;;
19251;SDS011;9760;50.944;5.304;2023-04-25T03:23:47;26.07;;;5.17;;
19251;SDS011;9760;50.944;5.304;2023-04-25T03:26:13;28.53;;;6.27;;
19251;SDS011;9760;50.944;5.304;2023-04-25T03:28:38;21.73;;;5.17;;
19251;SDS011;9760;50.944;5.304;2023-04-25T03:31:05;23.90;;;5.97;;
19251;SDS011;9760;50.944;5.304;2023-04-25T03:33:30;24.37;;;6.00;;
19251;SDS011;9760;50.944;5.304;2023-04-25T03:35:56;20.00;;;5.83;;
19251;SDS011;9760;50.944;5.304;2023-04-25T03:38:22;31.47;;;6.63;;
19251;SDS011;9760;50.944;5.304;2023-04-25T03:40:50;21.27;;;5.97;;
19251;SDS011;9760;50.944;5.304;2023-04-25T03:43:16;23.07;;;5.70;;
19251;SDS011;9760;50.944;5.304;2023-04-25T03:45:42;27.37;;;5.73;;
19251;SDS011;9760;50.944;5.304;2023-04-25T03:48:08;22.33;;;6.07;;
19251;SDS011;9760;50.944;5.304;2023-04-25T03:50:33;25.23;;;6.30;;
19251;SDS011;9760;50.944;5.304;2023-04-25T03:52:59;24.17;;;6.17;;
19251;SDS011;9760;50.944;5.304;2023-04-25T03:55:25;24.77;;;6.23;;
19251;SDS011;9760;50.944;5.304;2023-04-25T03:57:51;20.70;;;6.13;;
19251;SDS011;9760;50.944;5.304;2023-04-25T04:00:16;21.80;;;4.97;;
19251;SDS011;9760;50.944;5.304;2023-04-25T04:02:42;16.93;;;5.80;;
19251;SDS011;9760;50.944;5.304;2023-04-25T04:05:07;24.87;;;5.77;;
19251;SDS011;9760;50.944;5.304;2023-04-25T04:07:34;26.10;;;5.47;;
19251;SDS011;9760;50.944;5.304;2023-04-25T04:10:05;20.53;;;5.37;;
19251;SDS011;9760;50.944;5.304;2023-04-25T04:12:32;30.97;;;5.53;;
19251;SDS011;9760;50.944;5.304;2023-04-25T04:14:58;25.90;;;5.07;;
19251;SDS011;9760;50.944;5.304;2023-04-25T04:17:23;17.70;;;4.60;;
19251;SDS011;9760;50.944;5.304;2023-04-25T04:19:50;21.10;;;5.23;;
19251;SDS011;9760;50.944;5.304;2023-04-25T04:22:15;18.33;;;5.13;;
19251;SDS011;9760;50.944;5.304;2023-04-25T04:24:41;24.57;;;4.97;;
19251;SDS011;9760;50.944;5.304;2023-04-25T04:27:11;19.33;;;4.40;;
19251;SDS011;9760;50.944;5.304;2023-04-25T04:29:37;18.57;;;3.97;;
19251;SDS011;9760;50.944;5.304;2023-04-25T04:32:03;17.73;;;4.00;;
19251;SDS011;9760;50.944;5.304;2023-04-25T04:34:29;18.47;;;4.10;;
19251;SDS011;9760;50.944;5.304;2023-04-25T04:36:56;18.83;;;4.23;;
19251;SDS011;9760;50.944;5.304;2023-04-25T04:39:22;18.93;;;4.30;;
19251;SDS011;9760;50.944;5.304;2023-04-25T04:41:47;21.43;;;4.73;;
19251;SDS011;9760;50.944;5.304;2023-04-25T04:44:13;20.20;;;4.20;;
19251;SDS011;9760;50.944;5.304;2023-04-25T04:46:39;23.10;;;4.23;;
19251;SDS011;9760;50.944;5.304;2023-04-25T04:49:10;15.83;;;3.63;;
19251;SDS011;9760;50.944;5.304;2023-04-25T04:51:37;23.97;;;4.63;;
19251;SDS011;9760;50.944;5.304;2023-04-25T04:54:03;12.97;;;3.60;;
19251;SDS011;9760;50.944;5.304;2023-04-25T04:56:29;14.77;;;3.70;;
19251;SDS011;9760;50.944;5.304;2023-04-25T04:58:56;10.87;;;3.33;;
19251;SDS011;9760;50.944;5.304;2023-04-25T05:01:22;14.83;;;3.63;;
19251;SDS011;9760;50.944;5.304;2023-04-25T05:03:48;10.03;;;2.87;;
19251;SDS011;9760;50.944;5.304;2023-04-25T05:06:14;13.00;;;3.50;;
19251;SDS011;9760;50.944;5.304;2023-04-25T05:08:41;23.37;;;3.63;;
19251;SDS011;9760;50.944;5.304;2023-04-25T05:11:06;15.73;;;3.23;;
19251;SDS011;9760;50.944;5.304;2023-04-25T05:13:32;15.83;;;3.40;;
19251;SDS011;9760;50.944;5.304;2023-04-25T05:15:58;15.90;;;3.40;;
19251;SDS011;9760;50.944;5.304;2023-04-25T05:18:23;16.60;;;3.20;;
19251;SDS011;9760;50.944;5.304;2023-04-25T05:20:49;14.23;;;3.30;;
19251;SDS011;9760;50.944;5.304;2023-04-25T05:23:15;12.80;;;3.30;;
19251;SDS011;9760;50.944;5.304;2023-04-25T05:25:41;11.53;;;2.97;;
19251;SDS011;9760;50.944;5.304;2023-04-25T05:28:07;19.77;;;3.60;;
19251;SDS011;9760;50.944;5.304;2023-04-25T05:30:33;9.57;;;3.27;;
19251;SDS011;9760;50.944;5.304;2023-04-25T05:32:59;13.67;;;3.40;;
19251;SDS011;9760;50.944;5.304;2023-04-25T05:35:25;10.10;;;2.93;;
19251;SDS011;9760;50.944;5.304;2023-04-25T05:37:51;14.93;;;3.23;;
19251;SDS011;9760;50.944;5.304;2023-04-25T05:40:16;13.60;;;3.17;;
19251;SDS011;9760;50.944;5.304;2023-04-25T05:42:42;12.90;;;3.27;;
19251;SDS011;9760;50.944;5.304;2023-04-25T05:45:08;23.63;;;4.60;;
19251;SDS011;9760;50.944;5.304;2023-04-25T05:47:34;11.37;;;3.83;;
19251;SDS011;9760;50.944;5.304;2023-04-25T05:50:00;18.17;;;4.17;;
19251;SDS011;9760;50.944;5.304;2023-04-25T05:52:26;25.73;;;5.50;;
19251;SDS011;9760;50.944;5.304;2023-04-25T05:54:51;25.07;;;4.20;;
19251;SDS011;9760;50.944;5.304;2023-04-25T05:57:21;21.97;;;3.87;;
19251;SDS011;9760;50.944;5.304;2023-04-25T05:59:48;18.97;;;4.37;;
19251;SDS011;9760;50.944;5.304;2023-04-25T06:02:13;16.63;;;4.27;;
19251;SDS011;9760;50.944;5.304;2023-04-25T06:04:39;19.83;;;4.77;;
19251;SDS011;9760;50.944;5.304;2023-04-25T06:07:05;21.73;;;4.57;;
19251;SDS011;9760;50.944;5.304;2023-04-25T06:09:30;17.27;;;4.73;;
19251;SDS011;9760;50.944;5.304;2023-04-25T06:11:56;20.40;;;4.23;;
19251;SDS011;9760;50.944;5.304;2023-04-25T06:14:22;15.20;;;4.43;;
19251;SDS011;9760;50.944;5.304;2023-04-25T06:16:47;19.47;;;5.23;;
19251;SDS011;9760;50.944;5.304;2023-04-25T06:19:13;30.47;;;5.67;;
19251;SDS011;9760;50.944;5.304;2023-04-25T06:21:39;27.83;;;6.13;;
19251;SDS011;9760;50.944;5.304;2023-04-25T06:24:04;21.70;;;5.83;;
19251;SDS011;9760;50.944;5.304;2023-04-25T06:26:30;25.30;;;4.83;;
19251;SDS011;9760;50.944;5.304;2023-04-25T06:28:56;29.13;;;4.67;;
19251;SDS011;9760;50.944;5.304;2023-04-25T06:31:22;26.47;;;6.07;;
19251;SDS011;9760;50.944;5.304;2023-04-25T06:33:47;25.03;;;5.10;;
19251;SDS011;9760;50.944;5.304;2023-04-25T06:36:13;22.40;;;6.87;;
19251;SDS011;9760;50.944;5.304;2023-04-25T06:38:39;25.30;;;5.63;;
19251;SDS011;9760;50.944;5.304;2023-04-25T06:41:05;23.57;;;5.33;;
19251;SDS011;9760;50.944;5.304;2023-04-25T06:43:31;20.13;;;4.70;;
19251;SDS011;9760;50.944;5.304;2023-04-25T06:45:58;16.60;;;4.80;;
19251;SDS011;9760;50.944;5.304;2023-04-25T06:48:26;17.43;;;4.30;;
19251;SDS011;9760;50.944;5.304;2023-04-25T06:50:52;24.90;;;6.23;;
19251;SDS011;9760;50.944;5.304;2023-04-25T06:53:17;23.90;;;5.83;;
19251;SDS011;9760;50.944;5.304;2023-04-25T06:55:43;26.97;;;6.07;;
19251;SDS011;9760;50.944;5.304;2023-04-25T06:58:09;26.23;;;6.53;;
19251;SDS011;9760;50.944;5.304;2023-04-25T07:00:35;25.97;;;5.87;;
19251;SDS011;9760;50.944;5.304;2023-04-25T07:03:01;25.80;;;6.37;;
19251;SDS011;9760;50.944;5.304;2023-04-25T07:05:27;20.33;;;6.23;;
19251;SDS011;9760;50.944;5.304;2023-04-25T07:07:52;27.87;;;6.57;;
19251;SDS011;9760;50.944;5.304;2023-04-25T07:10:18;22.87;;;6.10;;
19251;SDS011;9760;50.944;5.304;2023-04-25T07:12:44;23.30;;;6.57;;
19251;SDS011;9760;50.944;5.304;2023-04-25T07:15:10;22.50;;;6.57;;
19251;SDS011;9760;50.944;5.304;2023-04-25T07:17:36;21.80;;;6.23;;
19251;SDS011;9760;50.944;5.304;2023-04-25T07:20:02;21.97;;;6.40;;
19251;SDS011;9760;50.944;5.304;2023-04-25T07:22:29;23.10;;;6.47;;
19251;SDS011;9760;50.944;5.304;2023-04-25T07:24:54;26.57;;;6.67;;
19251;SDS011;9760;50.944;5.304;2023-04-25T07:27:20;24.13;;;5.57;;
19251;SDS011;9760;50.944;5.304;2023-04-25T07:29:46;20.23;;;4.90;;
19251;SDS011;9760;50.944;5.304;2023-04-25T07:32:11;27.23;;;5.40;;
19251;SDS011;9760;50.944;5.304;2023-04-25T07:34:38;18.93;;;4.53;;
19251;SDS011;9760;50.944;5.304;2023-04-25T07:37:04;28.23;;;6.23;;
19251;SDS011;9760;50.944;5.304;2023-04-25T07:39:30;30.47;;;5.50;;
19251;SDS011;9760;50.944;5.304;2023-04-25T07:41:56;15.33;;;3.90;;
19251;SDS011;9760;50.944;5.304;2023-04-25T07:44:23;19.27;;;3.83;;
19251;SDS011;9760;50.944;5.304;2023-04-25T07:46:50;16.23;;;3.83;;
19251;SDS011;9760;50.944;5.304;2023-04-25T07:49:16;20.43;;;3.60;;
19251;SDS011;9760;50.944;5.304;2023-04-25T07:51:41;17.90;;;3.23;;
19251;SDS011;9760;50.944;5.304;2023-04-25T07:54:09;15.83;;;2.80;;
19251;SDS011;9760;50.944;5.304;2023-04-25T07:56:35;14.70;;;2.67;;
19251;SDS011;9760;50.944;5.304;2023-04-25T07:59:00;9.73;;;2.20;;
19251;SDS011;9760;50.944;5.304;2023-04-25T08:01:26;8.40;;;2.30;;
19251;SDS011;9760;50.944;5.304;2023-04-25T08:03:52;17.10;;;2.57;;
19251;SDS011;9760;50.944;5.304;2023-04-25T08:06:18;14.30;;;2.10;;
19251;SDS011;9760;50.944;5.304;2023-04-25T08:08:43;11.13;;;1.97;;
19251;SDS011;9760;50.944;5.304;2023-04-25T08:11:10;11.47;;;2.83;;
19251;SDS011;9760;50.944;5.304;2023-04-25T08:13:36;12.07;;;1.90;;
19251;SDS011;9760;50.944;5.304;2023-04-25T08:16:01;13.40;;;2.17;;
19251;SDS011;9760;50.944;5.304;2023-04-25T08:18:27;8.93;;;1.90;;
19251;SDS011;9760;50.944;5.304;2023-04-25T08:20:53;10.57;;;1.97;;
19251;SDS011;9760;50.944;5.304;2023-04-25T08:23:18;11.70;;;1.93;;
19251;SDS011;9760;50.944;5.304;2023-04-25T08:25:44;18.70;;;2.17;;
19251;SDS011;9760;50.944;5.304;2023-04-25T08:28:10;11.70;;;2.43;;
19251;SDS011;9760;50.944;5.304;2023-04-25T08:30:36;10.73;;;2.13;;
19251;SDS011;9760;50.944;5.304;2023-04-25T08:33:02;11.47;;;2.63;;
19251;SDS011;9760;50.944;5.304;2023-04-25T08:35:27;13.50;;;2.50;;
19251;SDS011;9760;50.944;5.304;2023-04-25T08:37:53;9.87;;;2.70;;
19251;SDS011;9760;50.944;5.304;2023-04-25T08:40:19;8.30;;;2.20;;
19251;SDS011;9760;50.944;5.304;2023-04-25T08:42:53;10.40;;;2.37;;
19251;SDS011;9760;50.944;5.304;2023-04-25T08:45:20;6.53;;;1.60;;
19251;SDS011;9760;50.944;5.304;2023-04-25T08:47:46;15.07;;;2.83;;
19251;SDS011;9760;50.944;5.304;2023-04-25T08:50:14;17.33;;;3.37;;
19251;SDS011;9760;50.944;5.304;2023-04-25T08:52:44;17.10;;;3.00;;
19251;SDS011;9760;50.944;5.304;2023-04-25T08:55:12;8.57;;;2.57;;
19251;SDS011;9760;50.944;5.304;2023-04-25T08:57:38;14.20;;;3.43;;
19251;SDS011;9760;50.944;5.304;2023-04-25T09:00:04;21.80;;;4.00;;
19251;SDS011;9760;50.944;5.304;2023-04-25T09:02:30;13.87;;;3.73;;
19251;SDS011;9760;50.944;5.304;2023-04-25T09:04:57;12.33;;;3.27;;
19251;SDS011;9760;50.944;5.304;2023-04-25T09:07:23;15.20;;;4.50;;
19251;SDS011;9760;50.944;5.304;2023-04-25T09:09:48;9.10;;;3.17;;
19251;SDS011;9760;50.944;5.304;2023-04-25T09:12:14;14.20;;;3.97;;
19251;SDS011;9760;50.944;5.304;2023-04-25T09:14:40;12.03;;;3.70;;
19251;SDS011;9760;50.944;5.304;2023-04-25T09:17:07;16.73;;;3.70;;
19251;SDS011;9760;50.944;5.304;2023-04-25T09:19:33;13.63;;;3.60;;
19251;SDS011;9760;50.944;5.304;2023-04-25T09:22:01;17.63;;;3.67;;
19251;SDS011;9760;50.944;5.304;2023-04-25T09:24:32;13.47;;;3.53;;
19251;SDS011;9760;50.944;5.304;2023-04-25T09:27:02;18.03;;;3.77;;
19251;SDS011;9760;50.944;5.304;2023-04-25T09:29:29;17.70;;;3.97;;
19251;SDS011;9760;50.944;5.304;2023-04-25T09:34:56;13.10;;;3.77;;
19251;SDS011;9760;50.944;5.304;2023-04-25T09:37:23;12.70;;;2.80;;
19251;SDS011;9760;50.944;5.304;2023-04-25T09:39:57;12.23;;;2.83;;
19251;SDS011;9760;50.944;5.304;2023-04-25T09:42:30;12.27;;;2.87;;
19251;SDS011;9760;50.944;5.304;2023-04-25T09:44:57;11.47;;;2.77;;
19251;SDS011;9760;50.944;5.304;2023-04-25T09:47:24;6.60;;;2.70;;
19251;SDS011;9760;50.944;5.304;2023-04-25T09:49:52;11.80;;;2.30;;
19251;SDS011;9760;50.944;5.304;2023-04-25T09:52:22;12.87;;;2.50;;
19251;SDS011;9760;50.944;5.304;2023-04-25T09:54:49;10.70;;;2.10;;
19251;SDS011;9760;50.944;5.304;2023-04-25T09:57:23;8.13;;;2.30;;
19251;SDS011;9760;50.944;5.304;2023-04-25T09:59:50;25.77;;;3.53;;
19251;SDS011;9760;50.944;5.304;2023-04-25T10:02:18;13.73;;;2.90;;
19251;SDS011;9760;50.944;5.304;2023-04-25T10:04:52;9.33;;;2.27;;
19251;SDS011;9760;50.944;5.304;2023-04-25T10:07:20;6.67;;;1.83;;
19251;SDS011;9760;50.944;5.304;2023-04-25T10:09:53;11.50;;;2.30;;
19251;SDS011;9760;50.944;5.304;2023-04-25T10:12:24;12.43;;;1.90;;
19251;SDS011;9760;50.944;5.304;2023-04-25T10:14:52;18.20;;;2.13;;
19251;SDS011;9760;50.944;5.304;2023-04-25T10:17:19;13.73;;;2.20;;
19251;SDS011;9760;50.944;5.304;2023-04-25T10:19:46;11.33;;;2.00;;
19251;SDS011;9760;50.944;5.304;2023-04-25T10:22:20;8.07;;;2.20;;
19251;SDS011;9760;50.944;5.304;2023-04-25T10:24:53;14.03;;;2.57;;
19251;SDS011;9760;50.944;5.304;2023-04-25T10:27:21;12.93;;;2.93;;
19251;SDS011;9760;50.944;5.304;2023-04-25T10:29:59;11.80;;;2.57;;
19251;SDS011;9760;50.944;5.304;2023-04-25T10:32:30;13.70;;;2.30;;
19251;SDS011;9760;50.944;5.304;2023-04-25T10:34:58;9.37;;;2.00;;
19251;SDS011;9760;50.944;5.304;2023-04-25T10:40:31;9.57;;;1.40;;
19251;SDS011;9760;50.944;5.304;2023-04-25T10:46:01;10.27;;;2.13;;
19251;SDS011;9760;50.944;5.304;2023-04-25T10:48:31;9.37;;;3.00;;
19251;SDS011;9760;50.944;5.304;2023-04-25T10:51:09;7.73;;;1.93;;
19251;SDS011;9760;50.944;5.304;2023-04-25T10:53:36;11.63;;;1.90;;
19251;SDS011;9760;50.944;5.304;2023-04-25T10:56:11;10.07;;;1.63;;
19251;SDS011;9760;50.944;5.304;2023-04-25T10:58:42;5.87;;;1.57;;
19251;SDS011;9760;50.944;5.304;2023-04-25T11:01:09;7.30;;;2.17;;
19251;SDS011;9760;50.944;5.304;2023-04-25T11:03:40;14.30;;;4.10;;
19251;SDS011;9760;50.944;5.304;2023-04-25T11:06:10;6.53;;;1.33;;
19251;SDS011;9760;50.944;5.304;2023-04-25T11:08:53;5.23;;;1.40;;
19251;SDS011;9760;50.944;5.304;2023-04-25T11:11:19;6.53;;;1.20;;
19251;SDS011;9760;50.944;5.304;2023-04-25T11:13:48;4.30;;;1.20;;
19251;SDS011;9760;50.944;5.304;2023-04-25T11:16:14;6.87;;;1.30;;
19251;SDS011;9760;50.944;5.304;2023-04-25T11:18:44;3.07;;;1.03;;
19251;SDS011;9760;50.944;5.304;2023-04-25T11:21:10;3.73;;;0.97;;
19251;SDS011;9760;50.944;5.304;2023-04-25T11:23:36;5.33;;;1.30;;
19251;SDS011;9760;50.944;5.304;2023-04-25T11:26:03;7.60;;;1.20;;
19251;SDS011;9760;50.944;5.304;2023-04-25T11:28:29;4.83;;;1.23;;
19251;SDS011;9760;50.944;5.304;2023-04-25T11:30:55;5.53;;;1.37;;
19251;SDS011;9760;50.944;5.304;2023-04-25T11:33:24;5.50;;;1.00;;
19251;SDS011;9760;50.944;5.304;2023-04-25T11:35:53;18.00;;;1.60;;
19251;SDS011;9760;50.944;5.304;2023-04-25T11:38:20;10.37;;;1.43;;
19251;SDS011;9760;50.944;5.304;2023-04-25T11:40:49;5.83;;;1.20;;
19251;SDS011;9760;50.944;5.304;2023-04-25T11:43:17;5.37;;;1.47;;
19251;SDS011;9760;50.944;5.304;2023-04-25T11:45:49;8.90;;;1.30;;
19251;SDS011;9760;50.944;5.304;2023-04-25T11:48:18;9.60;;;1.40;;
19251;SDS011;9760;50.944;5.304;2023-04-25T11:50:45;7.27;;;1.30;;
19251;SDS011;9760;50.944;5.304;2023-04-25T11:53:10;7.67;;;1.30;;
19251;SDS011;9760;50.944;5.304;2023-04-25T11:55:36;4.50;;;1.47;;
19251;SDS011;9760;50.944;5.304;2023-04-25T11:58:03;11.13;;;1.97;;
19251;SDS011;9760;50.944;5.304;2023-04-25T12:00:29;11.43;;;1.97;;
19251;SDS011;9760;50.944;5.304;2023-04-25T12:02:56;4.80;;;1.10;;
19251;SDS011;9760;50.944;5.304;2023-04-25T12:05:27;11.70;;;1.50;;
19251;SDS011;9760;50.944;5.304;2023-04-25T12:07:55;5.90;;;1.37;;
19251;SDS011;9760;50.944;5.304;2023-04-25T12:10:21;7.80;;;1.67;;
19251;SDS011;9760;50.944;5.304;2023-04-25T12:12:48;4.13;;;1.50;;
19251;SDS011;9760;50.944;5.304;2023-04-25T12:15:18;3.73;;;1.40;;
19251;SDS011;9760;50.944;5.304;2023-04-25T12:17:50;8.20;;;1.50;;
19251;SDS011;9760;50.944;5.304;2023-04-25T12:20:18;13.43;;;1.93;;
19251;SDS011;9760;50.944;5.304;2023-04-25T12:22:46;11.07;;;2.30;;
19251;SDS011;9760;50.944;5.304;2023-04-25T12:25:20;6.47;;;1.93;;
19251;SDS011;9760;50.944;5.304;2023-04-25T12:30:53;7.23;;;1.83;;
19251;SDS011;9760;50.944;5.304;2023-04-25T12:35:58;11.17;;;2.17;;
19251;SDS011;9760;50.944;5.304;2023-04-25T12:38:29;4.13;;;1.60;;
19251;SDS011;9760;50.944;5.304;2023-04-25T12:40:56;4.80;;;1.37;;
19251;SDS011;9760;50.944;5.304;2023-04-25T12:43:23;4.20;;;1.47;;
19251;SDS011;9760;50.944;5.304;2023-04-25T12:45:50;3.53;;;1.50;;
19251;SDS011;9760;50.944;5.304;2023-04-25T12:48:17;4.00;;;1.47;;
19251;SDS011;9760;50.944;5.304;2023-04-25T12:50:43;3.80;;;1.50;;
19251;SDS011;9760;50.944;5.304;2023-04-25T12:53:09;7.17;;;2.00;;
19251;SDS011;9760;50.944;5.304;2023-04-25T12:55:36;3.70;;;1.40;;
19251;SDS011;9760;50.944;5.304;2023-04-25T12:58:02;6.07;;;1.63;;
19251;SDS011;9760;50.944;5.304;2023-04-25T13:00:28;8.20;;;1.20;;
19251;SDS011;9760;50.944;5.304;2023-04-25T13:02:54;4.43;;;1.20;;
19251;SDS011;9760;50.944;5.304;2023-04-25T13:05:20;11.33;;;1.60;;
19251;SDS011;9760;50.944;5.304;2023-04-25T13:07:46;5.97;;;1.00;;
19251;SDS011;9760;50.944;5.304;2023-04-25T13:10:11;2.83;;;1.23;;
19251;SDS011;9760;50.944;5.304;2023-04-25T13:12:37;6.63;;;1.80;;
19251;SDS011;9760;50.944;5.304;2023-04-25T13:15:03;9.17;;;2.00;;
19251;SDS011;9760;50.944;5.304;2023-04-25T13:17:29;8.40;;;1.50;;
19251;SDS011;9760;50.944;5.304;2023-04-25T13:19:55;7.97;;;2.10;;
19251;SDS011;9760;50.944;5.304;2023-04-25T13:22:20;4.10;;;1.50;;
19251;SDS011;9760;50.944;5.304;2023-04-25T13:24:46;5.53;;;1.37;;
19251;SDS011;9760;50.944;5.304;2023-04-25T13:27:12;7.23;;;2.07;;
19251;SDS011;9760;50.944;5.304;2023-04-25T13:29:38;10.90;;;1.87;;
19251;SDS011;9760;50.944;5.304;2023-04-25T13:32:05;10.20;;;1.97;;
19251;SDS011;9760;50.944;5.304;2023-04-25T13:34:31;6.87;;;1.90;;
19251;SDS011;9760;50.944;5.304;2023-04-25T13:36:57;4.27;;;1.77;;
19251;SDS011;9760;50.944;5.304;2023-04-25T13:39:23;11.50;;;2.07;;
19251;SDS011;9760;50.944;5.304;2023-04-25T13:41:49;9.73;;;1.60;;
19251;SDS011;9760;50.944;5.304;2023-04-25T13:44:15;7.30;;;1.90;;
19251;SDS011;9760;50.944;5.304;2023-04-25T13:46:41;9.27;;;1.87;;
19251;SDS011;9760;50.944;5.304;2023-04-25T13:49:07;4.27;;;1.90;;
19251;SDS011;9760;50.944;5.304;2023-04-25T13:51:32;6.70;;;1.67;;
19251;SDS011;9760;50.944;5.304;2023-04-25T13:53:58;14.40;;;1.90;;
19251;SDS011;9760;50.944;5.304;2023-04-25T13:56:23;6.43;;;1.20;;
19251;SDS011;9760;50.944;5.304;2023-04-25T13:58:50;8.43;;;2.27;;
19251;SDS011;9760;50.944;5.304;2023-04-25T14:01:16;7.13;;;1.50;;
19251;SDS011;9760;50.944;5.304;2023-04-25T14:03:42;10.70;;;1.60;;
19251;SDS011;9760;50.944;5.304;2023-04-25T14:06:08;10.23;;;1.50;;
19251;SDS011;9760;50.944;5.304;2023-04-25T14:08:34;4.73;;;1.50;;
19251;SDS011;9760;50.944;5.304;2023-04-25T14:11:00;4.60;;;1.80;;
19251;SDS011;9760;50.944;5.304;2023-04-25T14:13:25;4.63;;;1.50;;
19251;SDS011;9760;50.944;5.304;2023-04-25T14:15:51;3.00;;;1.27;;
19251;SDS011;9760;50.944;5.304;2023-04-25T14:18:17;11.43;;;2.07;;
19251;SDS011;9760;50.944;5.304;2023-04-25T14:20:44;3.60;;;1.03;;
19251;SDS011;9760;50.944;5.304;2023-04-25T14:23:10;5.83;;;1.20;;
19251;SDS011;9760;50.944;5.304;2023-04-25T14:25:35;7.67;;;1.50;;
19251;SDS011;9760;50.944;5.304;2023-04-25T14:28:02;3.87;;;1.17;;
19251;SDS011;9760;50.944;5.304;2023-04-25T14:30:27;4.63;;;1.37;;
19251;SDS011;9760;50.944;5.304;2023-04-25T14:32:53;9.07;;;1.60;;
19251;SDS011;9760;50.944;5.304;2023-04-25T14:35:19;8.13;;;1.00;;
19251;SDS011;9760;50.944;5.304;2023-04-25T14:37:45;3.97;;;1.10;;
19251;SDS011;9760;50.944;5.304;2023-04-25T14:40:11;12.47;;;1.63;;
19251;SDS011;9760;50.944;5.304;2023-04-25T14:42:39;6.00;;;1.43;;
19251;SDS011;9760;50.944;5.304;2023-04-25T14:45:05;9.13;;;1.63;;
19251;SDS011;9760;50.944;5.304;2023-04-25T14:47:32;5.33;;;1.33;;
19251;SDS011;9760;50.944;5.304;2023-04-25T14:49:58;6.67;;;1.30;;
19251;SDS011;9760;50.944;5.304;2023-04-25T14:52:24;5.33;;;1.20;;
19251;SDS011;9760;50.944;5.304;2023-04-25T14:54:50;7.30;;;1.70;;
19251;SDS011;9760;50.944;5.304;2023-04-25T14:57:16;6.07;;;1.40;;
19251;SDS011;9760;50.944;5.304;2023-04-25T14:59:42;6.10;;;1.30;;
19251;SDS011;9760;50.944;5.304;2023-04-25T15:02:08;8.03;;;1.50;;